createdAt,value
2022-09-22T00:01:18.139Z,9.80
2022-09-22T00:03:49.588Z,10.90
2022-09-22T00:06:19.127Z,11.35
2022-09-22T00:08:49.587Z,9.18
2022-09-22T00:11:20.210Z,8.32
2022-09-22T00:13:51.103Z,8.23
2022-09-22T00:16:20.831Z,10.48
2022-09-22T00:18:50.451Z,9.75
2022-09-22T00:21:19.795Z,10.70
2022-09-22T00:23:48.230Z,8.65
2022-09-22T00:26:21.669Z,10.60
2022-09-22T00:28:51.228Z,10.02
2022-09-22T00:31:21.299Z,10.48
2022-09-22T00:33:51.510Z,9.57
2022-09-22T00:36:21.565Z,8.88
2022-09-22T00:38:50.675Z,9.65
2022-09-22T00:41:20.771Z,8.70
2022-09-22T00:43:50.435Z,9.18
2022-09-22T00:46:21.673Z,9.85
2022-09-22T00:48:56.328Z,11.40
2022-09-22T00:51:28.534Z,10.05
2022-09-22T00:53:58.600Z,12.00
2022-09-22T00:56:29.763Z,12.63
2022-09-22T00:59:01.679Z,9.70
2022-09-22T01:01:29.445Z,11.70
2022-09-22T01:03:58.899Z,10.73
2022-09-22T01:06:29.792Z,11.02
2022-09-22T01:08:58.417Z,8.88
2022-09-22T01:11:27.921Z,11.85
2022-09-22T01:14:05.252Z,9.05
2022-09-22T01:16:46.148Z,9.57
2022-09-22T01:19:39.982Z,11.77
2022-09-22T01:22:25.183Z,12.15
2022-09-22T01:25:15.164Z,9.50
2022-09-22T01:28:22.823Z,10.80
2022-09-22T01:30:58.692Z,10.07
2022-09-22T01:33:37.086Z,11.97
2022-09-22T01:36:25.554Z,10.40
2022-09-22T01:39:02.631Z,12.98
2022-09-22T01:41:58.331Z,10.15
2022-09-22T01:44:32.629Z,8.70
2022-09-22T01:47:08.342Z,9.30
2022-09-22T01:49:41.544Z,13.35
2022-09-22T01:52:16.647Z,9.98
2022-09-22T01:54:47.440Z,9.48
2022-09-22T01:57:22.096Z,9.80
2022-09-22T01:59:54.922Z,10.95
2022-09-22T02:02:29.876Z,9.15
2022-09-22T02:05:02.225Z,11.55
2022-09-22T02:07:33.970Z,9.25
2022-09-22T02:10:06.595Z,9.45
2022-09-22T02:12:35.788Z,6.82
2022-09-22T02:15:03.810Z,11.15
2022-09-22T02:17:35.366Z,9.45
2022-09-22T02:20:06.351Z,9.82
2022-09-22T02:22:34.263Z,8.98
2022-09-22T02:25:01.929Z,10.10
2022-09-22T02:27:36.757Z,9.30
2022-09-22T02:30:08.883Z,8.95
2022-09-22T02:32:41.854Z,11.10
2022-09-22T02:35:10.662Z,9.90
2022-09-22T02:37:42.953Z,9.90
2022-09-22T02:40:16.663Z,10.63
2022-09-22T02:42:49.818Z,7.38
2022-09-22T02:45:23.295Z,10.75
2022-09-22T02:47:57.202Z,8.85
2022-09-22T02:50:28.269Z,7.97
2022-09-22T02:53:02.667Z,8.63
2022-09-22T02:55:30.471Z,9.75
2022-09-22T02:57:58.366Z,12.88
2022-09-22T03:00:26.832Z,11.63
2022-09-22T03:02:56.018Z,7.65
2022-09-22T03:05:23.755Z,8.60
2022-09-22T03:07:51.459Z,6.05
2022-09-22T03:10:19.456Z,9.80
2022-09-22T03:13:14.464Z,8.60
2022-09-22T03:15:34.983Z,9.85
2022-09-22T03:18:04.202Z,7.45
2022-09-22T03:20:31.905Z,9.05
2022-09-22T03:22:59.611Z,7.93
2022-09-22T03:25:27.568Z,9.65
2022-09-22T03:27:55.270Z,14.32
2022-09-22T03:30:22.999Z,7.85
2022-09-22T03:32:50.863Z,8.52
2022-09-22T03:35:20.077Z,8.25
2022-09-22T03:37:48.037Z,9.32
2022-09-22T03:40:16.156Z,7.75
2022-09-22T03:42:43.936Z,9.68
2022-09-22T03:45:12.689Z,7.63
2022-09-22T03:47:40.429Z,7.75
2022-09-22T03:50:09.281Z,9.80
2022-09-22T03:52:40.060Z,7.72
2022-09-22T03:55:09.218Z,10.30
2022-09-22T03:57:37.009Z,7.28
2022-09-22T04:00:05.790Z,7.32
2022-09-22T04:02:33.582Z,7.10
2022-09-22T04:05:01.336Z,7.65
2022-09-22T04:07:29.030Z,8.35
2022-09-22T04:09:58.621Z,7.35
2022-09-22T04:12:26.298Z,7.03
2022-09-22T04:14:54.022Z,6.43
2022-09-22T04:17:21.873Z,7.63
2022-09-22T04:19:49.716Z,10.48
2022-09-22T04:22:17.457Z,10.13
2022-09-22T04:24:45.152Z,8.07
2022-09-22T04:27:21.530Z,9.80
2022-09-22T04:29:49.315Z,8.07
2022-09-22T04:32:17.646Z,7.28
2022-09-22T04:34:45.726Z,10.98
2022-09-22T04:37:13.690Z,8.15
2022-09-22T04:39:41.651Z,7.28
2022-09-22T04:42:09.945Z,7.03
2022-09-22T04:44:39.041Z,6.30
2022-09-22T04:47:07.003Z,9.85
2022-09-22T04:49:34.760Z,9.35
2022-09-22T04:52:02.904Z,7.70
2022-09-22T04:54:30.684Z,11.27
2022-09-22T04:56:58.422Z,7.45
2022-09-22T04:59:26.395Z,5.72
2022-09-22T05:01:55.435Z,6.90
2022-09-22T05:04:23.126Z,8.68
2022-09-22T05:06:50.879Z,9.07
2022-09-22T05:09:20.816Z,11.43
2022-09-22T05:11:49.591Z,7.57
2022-09-22T05:14:20.561Z,7.65
2022-09-22T05:16:50.685Z,8.48
2022-09-22T05:19:20.293Z,8.77
2022-09-22T05:21:48.043Z,9.10
2022-09-22T05:24:15.775Z,7.75
2022-09-22T05:26:43.486Z,7.68
2022-09-22T05:29:11.538Z,7.82
2022-09-22T05:31:39.309Z,10.52
2022-09-22T05:34:07.212Z,6.65
2022-09-22T05:36:36.274Z,11.63
2022-09-22T05:39:04.215Z,6.63
2022-09-22T05:41:31.991Z,7.35
2022-09-22T05:43:59.733Z,10.38
2022-09-22T05:46:27.522Z,7.10
2022-09-22T05:48:55.307Z,9.37
2022-09-22T05:51:23.042Z,9.05
2022-09-22T05:53:53.443Z,7.53
2022-09-22T05:56:21.191Z,10.82
2022-09-22T05:58:48.935Z,9.02
2022-09-22T06:01:16.922Z,9.30
2022-09-22T06:03:44.924Z,8.95
2022-09-22T06:06:12.664Z,8.50
2022-09-22T06:08:42.983Z,7.18
2022-09-22T06:11:15.464Z,6.43
2022-09-22T06:13:44.349Z,7.50
2022-09-22T06:16:14.705Z,10.75
2022-09-22T06:18:42.421Z,8.35
2022-09-22T06:21:10.405Z,7.10
2022-09-22T06:23:42.715Z,7.28
2022-09-22T06:26:11.684Z,7.05
2022-09-22T06:28:40.767Z,6.40
2022-09-22T06:31:08.463Z,7.72
2022-09-22T06:33:36.192Z,7.97
2022-09-22T06:36:04.218Z,6.68
2022-09-22T06:38:32.894Z,9.35
2022-09-22T06:41:01.784Z,7.55
2022-09-22T06:43:29.775Z,7.22
2022-09-22T06:46:02.807Z,6.43
2022-09-22T06:48:31.980Z,5.25
2022-09-22T06:51:00.092Z,7.93
2022-09-22T06:53:27.905Z,8.30
2022-09-22T06:55:55.704Z,6.80
2022-09-22T06:58:24.132Z,9.20
2022-09-22T07:00:53.811Z,10.23
2022-09-22T07:03:26.483Z,8.85
2022-09-22T07:05:55.614Z,8.18
2022-09-22T07:08:24.386Z,10.10
2022-09-22T07:10:56.934Z,8.77
2022-09-22T07:13:25.015Z,9.30
2022-09-22T07:15:53.010Z,10.35
2022-09-22T07:18:20.732Z,7.47
2022-09-22T07:20:50.046Z,7.28
2022-09-22T07:23:21.448Z,9.18
2022-09-22T07:25:56.462Z,8.15
2022-09-22T07:28:25.949Z,7.80
2022-09-22T07:30:53.649Z,7.38
2022-09-22T07:33:21.512Z,11.68
2022-09-22T07:35:50.747Z,8.05
2022-09-22T07:38:20.023Z,8.00
2022-09-22T07:40:53.456Z,10.40
2022-09-22T07:43:21.164Z,7.43
2022-09-22T07:45:55.880Z,7.55
2022-09-22T07:48:42.584Z,7.47
2022-09-22T07:51:16.753Z,7.95
2022-09-22T07:53:45.873Z,5.57
2022-09-22T07:56:15.523Z,6.38
2022-09-22T07:58:49.171Z,6.50
2022-09-22T08:01:17.869Z,5.55
2022-09-22T08:03:47.239Z,4.35
2022-09-22T08:06:19.547Z,5.22
2022-09-22T08:08:52.579Z,12.15
2022-09-22T08:11:22.073Z,7.43
2022-09-22T08:13:51.232Z,5.00
2022-09-22T08:16:19.453Z,5.00
2022-09-22T08:18:51.774Z,11.40
2022-09-22T08:21:20.868Z,5.53
2022-09-22T08:23:52.829Z,3.97
2022-09-22T08:26:22.086Z,7.82
2022-09-22T08:28:52.954Z,5.03
2022-09-22T08:31:21.728Z,5.18
2022-09-22T08:33:52.178Z,4.93
2022-09-22T08:36:22.116Z,5.55
2022-09-22T08:38:50.527Z,5.38
2022-09-22T08:41:27.442Z,4.65
2022-09-22T08:43:57.503Z,4.15
2022-09-22T08:46:29.553Z,4.55
2022-09-22T08:49:20.203Z,4.20
2022-09-22T08:51:55.376Z,5.15
2022-09-22T08:54:27.455Z,6.43
2022-09-22T08:57:21.475Z,5.78
2022-09-22T08:59:54.270Z,7.05
2022-09-22T09:02:38.542Z,4.70
2022-09-22T09:06:01.356Z,9.23
2022-09-22T09:08:50.581Z,10.20
2022-09-22T09:11:31.976Z,7.57
2022-09-22T09:14:13.680Z,4.57
2022-09-22T09:16:48.155Z,3.72
2022-09-22T09:19:20.089Z,3.78
2022-09-22T09:21:52.715Z,4.40
2022-09-22T09:27:24.222Z,4.30
2022-09-22T09:30:01.451Z,6.40
2022-09-22T09:32:37.723Z,7.00
2022-09-22T09:35:07.213Z,4.45
2022-09-22T09:37:35.556Z,4.55
2022-09-22T09:40:06.793Z,4.57
2022-09-22T09:42:36.477Z,3.97
2022-09-22T09:45:05.775Z,3.08
2022-09-22T09:47:48.392Z,7.63
2022-09-22T09:50:16.989Z,3.35
2022-09-22T09:52:46.249Z,3.83
2022-09-22T09:55:27.268Z,3.95
2022-09-22T09:58:07.759Z,4.82
2022-09-22T10:00:52.734Z,2.72
2022-09-22T10:03:26.590Z,2.85
2022-09-22T10:06:00.230Z,7.00
2022-09-22T10:08:32.098Z,2.47
2022-09-22T10:11:02.050Z,4.90
2022-09-22T10:13:32.441Z,4.88
2022-09-22T10:16:07.553Z,4.68
2022-09-22T10:18:37.710Z,3.63
2022-09-22T10:21:08.185Z,5.40
2022-09-22T10:23:36.637Z,3.42
2022-09-22T10:26:26.290Z,3.47
2022-09-22T10:29:19.154Z,3.47
2022-09-22T10:32:13.715Z,4.82
2022-09-22T10:34:47.278Z,3.38
2022-09-22T10:37:18.775Z,3.80
2022-09-22T10:39:49.856Z,3.17
2022-09-22T10:42:28.677Z,2.75
2022-09-22T10:45:02.752Z,2.47
2022-09-22T10:47:47.371Z,4.03
2022-09-22T10:50:31.723Z,3.10
2022-09-22T10:53:12.035Z,3.72
2022-09-22T10:55:50.112Z,3.13
2022-09-22T10:58:46.910Z,4.75
2022-09-22T11:01:31.205Z,2.67
2022-09-22T11:04:23.903Z,4.20
2022-09-22T11:07:23.798Z,4.32
2022-09-22T11:10:17.768Z,2.13
2022-09-22T11:12:54.573Z,3.60
2022-09-22T11:15:45.891Z,2.50
2022-09-22T11:18:37.620Z,2.85
2022-09-22T11:21:20.451Z,2.13
2022-09-22T11:24:14.729Z,1.38
2022-09-22T11:26:48.628Z,3.95
2022-09-22T11:29:37.461Z,2.90
2022-09-22T11:32:14.231Z,1.10
2022-09-22T11:35:00.946Z,4.00
2022-09-22T11:37:43.276Z,2.25
2022-09-22T11:40:37.031Z,2.92
2022-09-22T11:43:20.342Z,3.72
2022-09-22T11:45:54.232Z,2.33
2022-09-22T11:48:36.740Z,1.52
2022-09-22T11:51:18.874Z,4.60
2022-09-22T11:54:15.590Z,3.40
2022-09-22T11:56:46.091Z,3.88
2022-09-22T11:59:30.031Z,2.50
2022-09-22T12:02:04.604Z,1.73
2022-09-22T12:04:42.008Z,1.92
2022-09-22T12:07:17.389Z,1.67
2022-09-22T12:09:49.479Z,1.85
2022-09-22T12:12:20.635Z,2.20
2022-09-22T12:14:58.858Z,3.95
2022-09-22T12:17:32.450Z,2.25
2022-09-22T12:20:13.752Z,1.77
2022-09-22T12:23:09.628Z,1.48
2022-09-22T12:25:49.465Z,2.58
2022-09-22T12:28:20.750Z,1.65
2022-09-22T12:31:06.066Z,2.45
2022-09-22T12:33:37.086Z,1.13
2022-09-22T12:36:07.896Z,2.35
2022-09-22T12:38:35.936Z,2.00
2022-09-22T12:41:04.774Z,3.05
2022-09-22T12:43:34.459Z,1.35
2022-09-22T12:46:05.885Z,3.53
2022-09-22T12:48:36.035Z,1.10
2022-09-22T12:51:30.891Z,1.90
2022-09-22T12:54:41.405Z,1.00
2022-09-22T12:57:44.911Z,3.67
2022-09-22T13:00:32.288Z,1.05
2022-09-22T13:03:02.558Z,2.30
2022-09-22T13:05:46.837Z,1.17
2022-09-22T13:08:24.209Z,1.58
2022-09-22T13:11:00.710Z,2.47
2022-09-22T13:13:45.406Z,2.05
2022-09-22T13:16:34.496Z,2.38
2022-09-22T13:19:03.187Z,2.50
2022-09-22T13:21:32.691Z,1.42
2022-09-22T13:24:03.817Z,0.93
2022-09-22T13:26:33.508Z,2.17
2022-09-22T13:29:04.918Z,1.42
2022-09-22T13:31:45.357Z,2.45
2022-09-22T13:34:26.528Z,1.10
2022-09-22T13:36:58.250Z,1.80
2022-09-22T13:39:31.062Z,1.40
2022-09-22T13:42:05.254Z,2.50
2022-09-22T13:44:35.835Z,3.33
2022-09-22T13:47:07.865Z,3.17
2022-09-22T13:49:40.977Z,1.23
2022-09-22T13:52:13.927Z,2.42
2022-09-22T13:54:43.674Z,1.25
2022-09-22T13:57:21.217Z,1.55
2022-09-22T13:59:49.237Z,1.30
2022-09-22T14:02:22.106Z,1.90
2022-09-22T14:04:51.399Z,3.10
2022-09-22T14:07:22.143Z,1.77
2022-09-22T14:09:52.010Z,1.13
2022-09-22T14:12:20.916Z,1.20
2022-09-22T14:14:48.700Z,1.30
2022-09-22T14:17:20.841Z,1.70
2022-09-22T14:19:57.727Z,1.35
2022-09-22T14:22:27.615Z,2.78
2022-09-22T14:24:58.657Z,1.13
2022-09-22T14:27:32.483Z,1.65
2022-09-22T14:30:01.357Z,0.93
2022-09-22T14:32:36.224Z,1.08
2022-09-22T14:35:08.663Z,2.30
2022-09-22T14:37:39.488Z,0.70
2022-09-22T14:40:17.242Z,1.90
2022-09-22T14:42:57.354Z,1.77
2022-09-22T14:45:27.559Z,1.55
2022-09-22T14:48:18.237Z,2.35
2022-09-22T14:50:48.944Z,1.42
2022-09-22T14:53:22.953Z,1.40
2022-09-22T14:55:54.603Z,1.42
2022-09-22T14:58:24.994Z,2.60
2022-09-22T15:01:13.497Z,1.65
2022-09-22T15:03:43.566Z,1.60
2022-09-22T15:06:13.824Z,2.70
2022-09-22T15:08:44.485Z,1.52
2022-09-22T15:11:13.794Z,2.08
2022-09-22T15:13:43.471Z,1.65
2022-09-22T15:16:39.570Z,2.65
2022-09-22T15:19:10.942Z,5.15
2022-09-22T15:21:47.575Z,1.73
2022-09-22T15:26:46.628Z,6.65
2022-09-22T15:29:17.290Z,3.75
2022-09-22T15:31:45.197Z,8.07
2022-09-22T15:34:16.485Z,3.05
2022-09-22T15:36:48.826Z,3.03
2022-09-22T15:39:21.526Z,1.25
2022-09-22T15:41:51.229Z,2.30
2022-09-22T15:44:19.446Z,2.55
2022-09-22T15:46:52.557Z,1.88
2022-09-22T15:49:24.939Z,3.80
2022-09-22T15:51:54.622Z,2.65
2022-09-22T15:54:23.560Z,3.92
2022-09-22T15:56:54.996Z,5.07
2022-09-22T15:59:28.174Z,1.77
2022-09-22T16:01:57.135Z,1.55
2022-09-22T16:04:25.172Z,3.20
2022-09-22T16:06:56.395Z,1.65
2022-09-22T16:09:24.117Z,2.38
2022-09-22T16:11:53.875Z,1.42
2022-09-22T16:14:22.834Z,2.25
2022-09-22T16:16:52.275Z,3.60
2022-09-22T16:19:20.390Z,3.00
2022-09-22T16:21:51.575Z,6.10
2022-09-22T16:24:19.447Z,7.22
2022-09-22T16:26:47.212Z,3.25
2022-09-22T16:29:16.676Z,3.03
2022-09-22T16:31:44.468Z,0.93
2022-09-22T16:34:12.503Z,1.48
2022-09-22T16:36:41.707Z,1.80
2022-09-22T16:39:09.856Z,0.88
2022-09-22T16:41:38.165Z,2.45
2022-09-22T16:44:06.315Z,1.23
2022-09-22T16:46:37.881Z,2.33
2022-09-22T16:49:10.393Z,2.03
2022-09-22T16:51:41.134Z,1.67
2022-09-22T16:54:13.359Z,1.48
2022-09-22T16:56:43.109Z,1.52
2022-09-22T16:59:13.303Z,1.38
2022-09-22T17:01:43.790Z,1.27
2022-09-22T17:04:13.116Z,1.58
2022-09-22T17:06:41.766Z,2.25
2022-09-22T17:09:10.889Z,2.55
2022-09-22T17:11:40.218Z,2.90
2022-09-22T17:14:12.519Z,1.95
2022-09-22T17:16:43.606Z,2.58
2022-09-22T17:19:18.382Z,1.67
2022-09-22T17:21:47.303Z,1.73
2022-09-22T17:24:16.433Z,1.50
2022-09-22T17:26:47.543Z,1.58
2022-09-22T17:29:16.943Z,1.83
2022-09-22T17:31:47.309Z,1.33
2022-09-22T17:34:15.392Z,1.52
2022-09-22T17:36:43.130Z,3.60
2022-09-22T17:39:11.696Z,2.30
2022-09-22T17:41:45.398Z,2.85
2022-09-22T17:44:21.379Z,5.10
2022-09-22T17:47:09.354Z,3.22
2022-09-22T17:49:55.167Z,2.28
2022-09-22T17:52:40.518Z,3.35
2022-09-22T17:55:14.947Z,1.50
2022-09-22T17:57:43.939Z,3.20
2022-09-22T18:00:13.980Z,2.85
2022-09-22T18:02:43.926Z,3.00
2022-09-22T18:05:13.983Z,5.18
2022-09-22T18:07:42.303Z,3.20
2022-09-22T18:10:12.120Z,4.53
2022-09-22T18:12:41.255Z,2.03
2022-09-22T18:15:12.889Z,1.95
2022-09-22T18:17:42.324Z,3.28
2022-09-22T18:20:13.290Z,3.40
2022-09-22T18:22:41.898Z,5.40
2022-09-22T18:25:11.644Z,2.83
2022-09-22T18:27:40.031Z,2.33
2022-09-22T18:30:08.739Z,4.18
2022-09-22T18:32:36.443Z,2.40
2022-09-22T18:35:05.616Z,5.35
2022-09-22T18:37:34.749Z,5.03
2022-09-22T18:40:03.256Z,2.85
2022-09-22T18:42:32.424Z,2.75
2022-09-22T18:45:00.154Z,2.70
2022-09-22T18:47:27.883Z,2.80
2022-09-22T18:49:56.910Z,3.13
2022-09-22T18:52:25.561Z,4.38
2022-09-22T18:54:54.940Z,4.65
2022-09-22T18:57:24.613Z,2.47
2022-09-22T18:59:52.511Z,5.55
2022-09-22T19:02:22.530Z,5.38
2022-09-22T19:04:52.090Z,3.88
2022-09-22T19:07:41.565Z,6.28
2022-09-22T19:10:13.559Z,5.30
2022-09-22T19:12:42.836Z,3.13
2022-09-22T19:15:14.993Z,2.50
2022-09-22T19:17:44.160Z,3.15
2022-09-22T19:20:14.803Z,3.78
2022-09-22T19:22:42.795Z,5.13
2022-09-22T19:25:12.754Z,3.28
2022-09-22T19:27:40.808Z,5.00
2022-09-22T19:30:09.726Z,4.63
2022-09-22T19:32:37.994Z,4.45
2022-09-22T19:35:07.371Z,7.25
2022-09-22T19:37:35.171Z,6.88
2022-09-22T19:40:03.032Z,6.18
2022-09-22T19:42:32.335Z,4.57
2022-09-22T19:45:00.178Z,4.07
2022-09-22T19:47:27.923Z,4.53
2022-09-22T19:49:56.400Z,3.67
2022-09-22T19:52:24.296Z,4.50
2022-09-22T19:54:52.019Z,3.92
2022-09-22T19:57:19.740Z,4.70
2022-09-22T19:59:48.796Z,4.30
2022-09-22T20:02:16.636Z,5.30
2022-09-22T20:04:44.399Z,5.88
2022-09-22T20:07:12.145Z,5.22
2022-09-22T20:09:40.247Z,5.20
2022-09-22T20:12:08.291Z,6.07
2022-09-22T20:14:36.179Z,7.30
2022-09-22T20:17:08.226Z,5.05
2022-09-22T20:19:38.331Z,5.40
2022-09-22T20:22:22.782Z,5.07
2022-09-22T20:24:54.130Z,6.70
2022-09-22T20:27:26.517Z,5.13
2022-09-22T20:29:57.327Z,5.32
2022-09-22T20:32:28.191Z,5.07
2022-09-22T20:34:56.475Z,7.28
2022-09-22T20:37:25.053Z,7.38
2022-09-22T20:39:52.901Z,5.13
2022-09-22T20:42:20.766Z,4.82
2022-09-22T20:44:49.214Z,4.75
2022-09-22T20:47:18.711Z,4.35
2022-09-22T20:49:51.574Z,5.05
2022-09-22T20:52:21.780Z,4.32
2022-09-22T20:54:49.769Z,7.05
2022-09-22T20:57:18.056Z,6.85
2022-09-22T20:59:46.633Z,5.95
2022-09-22T21:02:15.297Z,6.10
2022-09-22T21:04:43.796Z,4.85
2022-09-22T21:07:13.163Z,5.93
2022-09-22T21:09:58.826Z,7.28
2022-09-22T21:12:31.104Z,5.00
2022-09-22T21:14:59.541Z,9.32
2022-09-22T21:17:30.108Z,5.95
2022-09-22T21:19:58.302Z,4.60
2022-09-22T21:22:28.241Z,4.40
2022-09-22T21:24:56.368Z,10.30
2022-09-22T21:27:24.694Z,6.47
2022-09-22T21:29:53.230Z,5.70
2022-09-22T21:32:21.047Z,4.95
2022-09-22T21:34:48.847Z,4.95
2022-09-22T21:37:16.991Z,6.32
2022-09-22T21:39:46.342Z,7.68
2022-09-22T21:42:14.011Z,5.60
2022-09-22T21:44:42.057Z,6.90
2022-09-22T21:47:10.616Z,6.55
2022-09-22T21:49:38.492Z,5.95
2022-09-22T21:52:06.521Z,6.35
2022-09-22T21:54:34.476Z,5.07
2022-09-22T21:57:03.614Z,5.82
2022-09-22T21:59:31.324Z,6.32
2022-09-22T22:01:59.395Z,5.50
2022-09-22T22:04:27.782Z,5.28
2022-09-22T22:06:56.142Z,6.30
2022-09-22T22:09:25.687Z,6.50
2022-09-22T22:11:56.704Z,8.02
2022-09-22T22:14:32.789Z,5.93
2022-09-22T22:17:02.116Z,6.38
2022-09-22T22:19:30.114Z,9.77
2022-09-22T22:21:57.892Z,6.03
2022-09-22T22:24:39.428Z,7.13
2022-09-22T22:27:10.184Z,5.97
2022-09-22T22:29:39.715Z,7.65
2022-09-22T22:32:09.222Z,7.15
2022-09-22T22:34:37.296Z,7.75
2022-09-22T22:37:08.973Z,6.10
2022-09-22T22:39:36.684Z,7.03
2022-09-22T22:42:04.793Z,5.75
2022-09-22T22:44:32.680Z,6.25
2022-09-22T22:47:01.848Z,6.57
2022-09-22T22:49:29.582Z,7.47
2022-09-22T22:51:57.340Z,5.53
2022-09-22T22:54:25.203Z,6.05
2022-09-22T22:56:52.905Z,7.03
2022-09-22T22:59:20.822Z,8.57
2022-09-22T23:01:48.553Z,11.27
2022-09-22T23:04:17.700Z,5.70
2022-09-22T23:06:47.327Z,6.75
2022-09-22T23:09:16.643Z,6.22
2022-09-22T23:11:45.881Z,6.18
2022-09-22T23:14:16.462Z,6.40
2022-09-22T23:16:46.631Z,9.40
2022-09-22T23:19:17.980Z,7.28
2022-09-22T23:21:46.846Z,6.63
2022-09-22T23:24:16.369Z,6.88
2022-09-22T23:26:45.339Z,8.65
2022-09-22T23:29:13.307Z,7.40
2022-09-22T23:31:41.001Z,7.13
2022-09-22T23:34:08.719Z,6.72
2022-09-22T23:36:39.518Z,6.50
2022-09-22T23:39:07.606Z,7.03
2022-09-22T23:41:37.690Z,7.93
2022-09-22T23:44:06.704Z,8.07
2022-09-22T23:46:34.951Z,5.90
2022-09-22T23:49:02.689Z,6.68
2022-09-22T23:51:30.650Z,5.13
2022-09-22T23:54:00.179Z,6.78
2022-09-22T23:56:28.030Z,7.38
2022-09-22T23:58:55.908Z,6.63
